map of AEY home
AEY - Airport
Location
City:  Akureyri, Iceland
Name:Akureyri Airport
ICAO:BIAR
IATA:AEY

Details
Type:Airport (Aerodrome, Airfield)
Latitude:6539'31"N (65.658611)
Longitude:1804'20"W (-18.072221)
Elevation:6 ft (2 m)
Variation:12.04W (WMM2015 magnetic declination)
0.27 annual change
Runways:1
Longest:6365 × 148 ft (1940 × 45 m), paved

Time
Time Zone:UTC+0
Local Time:

Weather
METAR:BIAR 191300Z 18009KT CAVOK 06/03 Q1026
TAF:BIAR 190757Z 1909/2009 17013KT CAVOK TX08/1912Z TN05/2006Z
BECMG 2000/2003 VRB02KT

Related Locations
Nearby:
Farthest:NZTB: 11802 mi / 18994 km
Terra Nova Bay [Mario Zucchelli Station], AQ

Find:

   beyond  
but within

Other Information
Maps:
NOTAMs:
Links:
Sources:

  
  • flag of Iceland
  

Sectional Chart

Flight Planning
at skyvector.com

Satellite Image

Google Maps Satellite view

 

Copyright © 2004-2018 Karl L. Swartz. All rights reserved.
The Great Circle Mapper name and logo are trademarks of the Great Circle Mapper.
All other trademarks mentioned herein belong to their respective owners.
Please see credits for attibutions and further copyright information.

  Follow gcmap on Facebook Follow gcmap on Twitter Follow gcmap on Google+ GCmap on LinkedIn

hCard Microformat

Geo Microformat